createdAt,value
2023-05-02T00:01:48.595Z,11.57
2023-05-02T00:04:16.286Z,8.93
2023-05-02T00:06:45.634Z,9.53
2023-05-02T00:09:13.492Z,9.97
2023-05-02T00:11:41.155Z,9.40
2023-05-02T00:14:08.544Z,11.60
2023-05-02T00:16:35.974Z,9.80
2023-05-02T00:19:03.415Z,9.23
2023-05-02T00:21:31.076Z,10.20
2023-05-02T00:23:58.724Z,11.27
2023-05-02T00:26:27.385Z,12.57
2023-05-02T00:28:54.757Z,13.00
2023-05-02T00:31:22.228Z,12.20
2023-05-02T00:33:49.727Z,13.83
2023-05-02T00:36:17.620Z,13.00
2023-05-02T00:38:45.072Z,13.03
2023-05-02T00:41:12.602Z,13.30
2023-05-02T00:43:40.849Z,14.37
2023-05-02T00:46:08.362Z,16.17
2023-05-02T00:48:36.494Z,12.57
2023-05-02T00:51:05.214Z,14.70
2023-05-02T00:53:32.788Z,14.50
2023-05-02T00:56:00.229Z,16.03
2023-05-02T00:58:28.551Z,15.27
2023-05-02T01:01:06.556Z,17.50
2023-05-02T01:03:35.532Z,17.47
2023-05-02T01:06:07.386Z,14.13
2023-05-02T01:08:42.507Z,16.10
2023-05-02T01:11:19.447Z,14.90
2023-05-02T01:13:47.584Z,14.50
2023-05-02T01:16:16.971Z,15.17
2023-05-02T01:18:44.396Z,13.63
2023-05-02T01:21:12.790Z,14.30
2023-05-02T01:23:47.563Z,15.40
2023-05-02T01:26:33.207Z,15.50
2023-05-02T01:29:05.368Z,14.00
2023-05-02T01:31:34.340Z,13.60
2023-05-02T01:34:02.044Z,16.17
2023-05-02T01:36:31.351Z,15.20
2023-05-02T01:38:59.723Z,17.53
2023-05-02T01:41:27.879Z,16.07
2023-05-02T01:43:56.981Z,15.37
2023-05-02T01:46:25.865Z,16.47
2023-05-02T01:48:53.480Z,17.60
2023-05-02T01:51:22.043Z,17.77
2023-05-02T01:53:50.157Z,22.20
2023-05-02T01:56:18.701Z,19.53
2023-05-02T01:58:46.968Z,17.43
2023-05-02T02:01:15.375Z,18.93
2023-05-02T02:03:43.574Z,19.13
2023-05-02T02:06:11.882Z,21.40
2023-05-02T02:08:39.222Z,23.50
2023-05-02T02:11:08.147Z,22.17
2023-05-02T02:13:37.063Z,21.07
2023-05-02T02:16:05.237Z,20.43
2023-05-02T02:18:34.144Z,22.03
2023-05-02T02:21:01.935Z,21.07
2023-05-02T02:23:30.673Z,22.43
2023-05-02T02:25:58.527Z,22.70
2023-05-02T02:28:26.227Z,25.23
2023-05-02T02:30:53.709Z,23.83
2023-05-02T02:33:21.357Z,21.37
2023-05-02T02:35:53.436Z,23.70
2023-05-02T02:38:24.998Z,26.40
2023-05-02T02:40:59.624Z,26.70
2023-05-02T02:43:28.532Z,24.90
2023-05-02T02:46:00.204Z,25.37
2023-05-02T02:48:38.362Z,27.83
2023-05-02T02:51:07.364Z,25.33
2023-05-02T02:53:36.277Z,24.87
2023-05-02T02:56:05.211Z,28.27
2023-05-02T02:58:34.121Z,29.47
2023-05-02T03:01:03.045Z,28.77
2023-05-02T03:03:31.419Z,27.93
2023-05-02T03:05:59.648Z,28.13
2023-05-02T03:08:27.092Z,28.20
2023-05-02T03:10:54.469Z,37.57
2023-05-02T03:13:21.854Z,31.43
2023-05-02T03:15:50.860Z,39.93
2023-05-02T03:18:19.076Z,40.13
2023-05-02T03:20:46.569Z,41.40
2023-05-02T03:23:13.945Z,35.97
2023-05-02T03:25:41.488Z,44.87
2023-05-02T03:28:08.808Z,41.00
2023-05-02T03:30:37.831Z,45.57
2023-05-02T03:33:06.908Z,47.70
2023-05-02T03:35:34.251Z,47.60
2023-05-02T03:38:01.643Z,46.07
2023-05-02T03:40:29.012Z,48.70
2023-05-02T03:42:56.411Z,48.40
2023-05-02T03:45:23.857Z,46.50
2023-05-02T03:47:51.294Z,46.60
2023-05-02T03:50:18.990Z,51.00
2023-05-02T03:52:46.760Z,44.60
2023-05-02T03:55:14.215Z,46.40
2023-05-02T03:57:41.517Z,45.97
2023-05-02T04:00:09.118Z,48.53
2023-05-02T04:02:36.686Z,46.97
2023-05-02T04:05:04.184Z,45.60
2023-05-02T04:07:31.588Z,47.43
2023-05-02T04:09:59.308Z,51.77
2023-05-02T04:12:27.048Z,52.13
2023-05-02T04:14:55.499Z,52.17
2023-05-02T04:17:22.897Z,56.10
2023-05-02T04:19:51.238Z,53.00
2023-05-02T04:22:18.628Z,55.40
2023-05-02T04:24:46.002Z,59.50
2023-05-02T04:27:15.131Z,56.43
2023-05-02T04:29:42.396Z,57.03
2023-05-02T04:32:11.515Z,57.80
2023-05-02T04:34:38.907Z,55.57
2023-05-02T04:37:07.059Z,58.17
2023-05-02T04:39:34.919Z,60.30
2023-05-02T04:42:02.314Z,61.00
2023-05-02T04:44:29.709Z,60.17
2023-05-02T04:46:57.101Z,58.90
2023-05-02T04:49:24.476Z,57.77
2023-05-02T04:51:53.508Z,58.67
2023-05-02T04:54:20.866Z,59.63
2023-05-02T04:56:48.434Z,60.50
2023-05-02T04:59:15.787Z,61.97
2023-05-02T05:01:43.362Z,60.77
2023-05-02T05:04:10.813Z,57.30
2023-05-02T05:06:38.572Z,60.17
2023-05-02T05:09:05.965Z,61.07
2023-05-02T05:11:33.373Z,59.23
2023-05-02T05:14:01.103Z,60.23
2023-05-02T05:16:28.698Z,61.80
2023-05-02T05:18:56.050Z,66.67
2023-05-02T05:21:23.451Z,62.10
2023-05-02T05:23:51.096Z,62.93
2023-05-02T05:26:18.428Z,59.23
2023-05-02T05:28:45.806Z,60.10
2023-05-02T05:31:16.833Z,58.30
2023-05-02T05:33:44.696Z,59.30
2023-05-02T05:36:14.770Z,57.50
2023-05-02T05:38:42.153Z,59.50
2023-05-02T05:41:10.891Z,55.93
2023-05-02T05:43:38.468Z,54.23
2023-05-02T05:46:05.930Z,56.07
2023-05-02T05:48:33.284Z,55.83
2023-05-02T05:51:06.578Z,54.57
2023-05-02T05:53:34.123Z,53.40
2023-05-02T05:56:03.039Z,53.30
2023-05-02T05:58:30.421Z,53.30
2023-05-02T06:00:57.799Z,50.83
2023-05-02T06:03:25.239Z,50.80
2023-05-02T06:05:52.670Z,46.97
2023-05-02T06:08:21.302Z,46.93
2023-05-02T06:10:48.605Z,43.57
2023-05-02T06:13:15.994Z,41.47
2023-05-02T06:15:43.402Z,40.10
2023-05-02T06:18:10.847Z,39.07
2023-05-02T06:20:38.211Z,42.30
2023-05-02T06:23:05.597Z,39.70
2023-05-02T06:25:33.743Z,43.77
2023-05-02T06:28:01.120Z,45.00
2023-05-02T06:30:28.525Z,42.50
2023-05-02T06:32:55.919Z,44.07
2023-05-02T06:35:23.355Z,42.33
2023-05-02T06:37:50.811Z,41.90
2023-05-02T06:40:18.258Z,42.27
2023-05-02T06:42:45.638Z,40.57
2023-05-02T06:45:13.097Z,40.87
2023-05-02T06:47:40.540Z,38.70
2023-05-02T06:50:08.411Z,39.23
2023-05-02T06:52:35.759Z,40.17
2023-05-02T06:55:03.133Z,38.30
2023-05-02T06:57:30.442Z,42.20
2023-05-02T06:59:58.262Z,39.73
2023-05-02T07:02:26.038Z,37.97
2023-05-02T07:04:53.409Z,36.50
2023-05-02T07:07:21.945Z,37.13
2023-05-02T07:09:49.306Z,32.40
2023-05-02T07:12:16.629Z,35.10
2023-05-02T07:14:44.182Z,33.87
2023-05-02T07:17:11.633Z,35.50
2023-05-02T07:19:39.131Z,33.17
2023-05-02T07:22:07.023Z,30.53
2023-05-02T07:24:34.437Z,30.97
2023-05-02T07:27:03.128Z,30.60
2023-05-02T07:29:30.567Z,28.97
2023-05-02T07:31:57.989Z,26.43
2023-05-02T07:34:25.348Z,28.00
2023-05-02T07:36:52.720Z,26.80
2023-05-02T07:39:20.272Z,27.57
2023-05-02T07:41:47.573Z,29.63
2023-05-02T07:44:14.900Z,26.07
2023-05-02T07:46:42.324Z,23.83
2023-05-02T07:49:09.667Z,23.90
2023-05-02T07:51:37.007Z,23.50
2023-05-02T07:54:06.545Z,23.10
2023-05-02T07:56:34.317Z,21.23
2023-05-02T07:59:03.153Z,23.87
2023-05-02T08:01:30.684Z,24.00
2023-05-02T08:03:58.216Z,24.87
2023-05-02T08:06:25.835Z,25.77
2023-05-02T08:08:53.197Z,24.40
2023-05-02T08:11:23.359Z,23.13
2023-05-02T08:13:51.420Z,25.10
2023-05-02T08:16:19.480Z,24.80
2023-05-02T08:18:47.033Z,23.87
2023-05-02T08:21:14.656Z,24.57
2023-05-02T08:23:42.523Z,21.60
2023-05-02T08:26:09.895Z,15.73
2023-05-02T08:28:37.272Z,14.97
2023-05-02T08:31:04.585Z,14.83
2023-05-02T08:33:31.888Z,13.30
2023-05-02T08:36:00.136Z,12.90
2023-05-02T08:38:27.457Z,11.93
2023-05-02T08:40:54.831Z,12.30
2023-05-02T08:43:22.219Z,13.10
2023-05-02T08:45:50.631Z,13.43
2023-05-02T08:48:18.560Z,13.73
2023-05-02T08:50:47.973Z,14.17
2023-05-02T08:53:15.422Z,12.00
2023-05-02T08:55:43.031Z,10.87
2023-05-02T08:58:11.534Z,14.13
2023-05-02T09:00:40.849Z,13.23
2023-05-02T09:03:26.538Z,13.87
2023-05-02T09:05:55.484Z,15.00
2023-05-02T09:08:24.100Z,15.80
2023-05-02T09:10:51.624Z,16.03
2023-05-02T09:13:32.238Z,15.00
2023-05-02T09:16:01.002Z,14.57
2023-05-02T09:18:32.131Z,12.87
2023-05-02T09:21:00.549Z,13.90
2023-05-02T09:23:37.892Z,13.72
2023-05-02T09:26:12.758Z,12.97
2023-05-02T09:28:44.364Z,13.83
2023-05-02T09:31:13.547Z,13.90
2023-05-02T09:33:41.798Z,12.77
2023-05-02T09:36:10.150Z,13.10
2023-05-02T09:38:38.670Z,13.37
2023-05-02T09:41:06.081Z,13.27
2023-05-02T09:43:33.540Z,13.73
2023-05-02T09:46:02.578Z,11.30
2023-05-02T09:48:31.023Z,12.53
2023-05-02T09:50:58.864Z,9.77
2023-05-02T09:53:27.170Z,9.50
2023-05-02T09:56:02.033Z,10.60
2023-05-02T09:58:30.857Z,9.27
2023-05-02T10:00:59.281Z,9.83
2023-05-02T10:03:27.410Z,9.70
2023-05-02T10:05:55.220Z,10.60
2023-05-02T10:08:23.587Z,10.27
2023-05-02T10:10:53.370Z,9.00
2023-05-02T10:13:22.238Z,10.70
2023-05-02T10:15:50.984Z,10.93
2023-05-02T10:18:22.856Z,10.17
2023-05-02T10:20:51.706Z,9.80
2023-05-02T10:23:20.346Z,9.57
2023-05-02T10:25:47.784Z,9.03
2023-05-02T10:28:15.489Z,10.57
2023-05-02T10:30:42.973Z,10.40
2023-05-02T10:33:10.523Z,11.97
2023-05-02T10:35:38.317Z,11.33
2023-05-02T10:38:06.669Z,11.90
2023-05-02T10:40:34.314Z,12.33
2023-05-02T10:43:01.956Z,11.60
2023-05-02T10:45:35.906Z,10.33
2023-05-02T10:48:20.013Z,10.97
2023-05-02T10:50:51.101Z,10.23
2023-05-02T10:53:20.012Z,10.60
2023-05-02T10:55:48.921Z,12.00
2023-05-02T10:58:22.310Z,7.30
2023-05-02T11:00:49.761Z,8.67
2023-05-02T11:03:18.783Z,7.63
2023-05-02T11:06:04.463Z,9.20
2023-05-02T11:08:31.849Z,8.87
2023-05-02T11:11:00.804Z,7.60
2023-05-02T11:13:46.725Z,8.20
2023-05-02T11:16:14.131Z,7.37
2023-05-02T11:18:45.903Z,7.80
2023-05-02T11:21:28.000Z,7.40
2023-05-02T11:23:56.840Z,7.50
2023-05-02T11:26:25.791Z,6.80
2023-05-02T11:28:53.180Z,6.27
2023-05-02T11:31:30.907Z,8.17
2023-05-02T11:33:58.784Z,6.37
2023-05-02T11:36:35.763Z,6.57
2023-05-02T11:39:05.478Z,7.20
2023-05-02T11:41:39.643Z,7.20
2023-05-02T11:44:07.071Z,6.10
2023-05-02T11:46:35.929Z,6.90
2023-05-02T11:49:03.284Z,7.40
2023-05-02T11:51:31.517Z,6.40
2023-05-02T11:53:58.844Z,7.33
2023-05-02T11:56:29.326Z,7.43
2023-05-02T11:59:04.258Z,6.63
2023-05-02T12:01:31.710Z,6.90
2023-05-02T12:04:03.342Z,6.77
2023-05-02T12:06:30.923Z,7.60
2023-05-02T12:09:07.986Z,6.60
2023-05-02T12:11:35.804Z,7.23
2023-05-02T12:14:04.154Z,6.50
2023-05-02T12:16:31.909Z,7.30
2023-05-02T12:19:01.064Z,7.50
2023-05-02T12:21:32.904Z,7.37
2023-05-02T12:24:01.437Z,7.70
2023-05-02T12:26:33.342Z,7.13
2023-05-02T12:29:02.321Z,6.90
2023-05-02T12:31:31.369Z,7.67
2023-05-02T12:34:00.210Z,7.87
2023-05-02T12:36:32.769Z,7.70
2023-05-02T12:39:01.289Z,8.63
2023-05-02T12:41:33.063Z,7.87
2023-05-02T12:44:03.461Z,9.47
2023-05-02T12:46:31.401Z,8.30
2023-05-02T12:49:06.410Z,9.10
2023-05-02T12:51:34.611Z,9.10
2023-05-02T12:54:02.501Z,9.80
2023-05-02T12:56:31.592Z,10.30
2023-05-02T12:59:00.861Z,9.93
2023-05-02T13:01:29.090Z,10.50
2023-05-02T13:03:56.455Z,11.03
2023-05-02T13:06:23.837Z,9.90
2023-05-02T13:08:51.179Z,10.50
2023-05-02T13:11:19.153Z,11.13
2023-05-02T13:13:46.516Z,10.00
2023-05-02T13:16:14.067Z,11.20
2023-05-02T13:18:41.522Z,10.03
2023-05-02T13:21:08.861Z,8.90
2023-05-02T13:23:36.298Z,9.10
2023-05-02T13:26:03.942Z,8.90
2023-05-02T13:28:33.115Z,8.53
2023-05-02T13:31:00.508Z,8.57
2023-05-02T13:33:27.973Z,8.30
2023-05-02T13:35:55.374Z,8.67
2023-05-02T13:38:22.685Z,7.50
2023-05-02T13:40:50.491Z,7.77
2023-05-02T13:43:17.806Z,8.83
2023-05-02T13:45:46.945Z,7.80
2023-05-02T13:48:15.407Z,7.03
2023-05-02T13:50:42.748Z,7.87
2023-05-02T13:53:10.120Z,8.20
2023-05-02T13:55:37.464Z,8.67
2023-05-02T13:58:05.339Z,8.30
2023-05-02T14:00:32.921Z,7.50
2023-05-02T14:03:00.355Z,8.10
2023-05-02T14:05:27.829Z,7.93
2023-05-02T14:07:55.228Z,7.93
2023-05-02T14:10:22.621Z,9.40
2023-05-02T14:12:49.979Z,7.80
2023-05-02T14:15:17.349Z,7.67
2023-05-02T14:17:44.753Z,7.10
2023-05-02T14:20:12.245Z,7.43
2023-05-02T14:22:39.708Z,7.73
2023-05-02T14:25:07.521Z,7.90
2023-05-02T14:27:34.830Z,9.57
2023-05-02T14:30:02.411Z,8.23
2023-05-02T14:32:30.030Z,8.80
2023-05-02T14:34:57.391Z,8.10
2023-05-02T14:37:25.014Z,7.90
2023-05-02T14:39:55.106Z,7.70
2023-05-02T14:42:23.587Z,7.13
2023-05-02T14:44:52.365Z,7.00
2023-05-02T14:47:20.324Z,7.23
2023-05-02T14:49:47.973Z,6.57
2023-05-02T14:52:15.525Z,6.23
2023-05-02T14:54:42.940Z,5.67
2023-05-02T14:57:11.041Z,5.80
2023-05-02T14:59:38.779Z,4.90
2023-05-02T15:02:06.766Z,5.37
2023-05-02T15:04:34.442Z,5.57
2023-05-02T15:07:01.984Z,4.93
2023-05-02T15:09:29.712Z,4.40
2023-05-02T15:11:57.173Z,5.27
2023-05-02T15:14:24.641Z,4.97
2023-05-02T15:16:53.099Z,4.67
2023-05-02T15:19:22.505Z,5.40
2023-05-02T15:21:50.151Z,4.77
2023-05-02T15:24:17.644Z,5.50
2023-05-02T15:26:44.995Z,5.53
2023-05-02T15:29:12.381Z,5.90
2023-05-02T15:31:40.356Z,5.37
2023-05-02T15:34:07.887Z,6.10
2023-05-02T15:36:36.910Z,6.03
2023-05-02T15:39:04.655Z,6.10
2023-05-02T15:41:32.074Z,6.97
2023-05-02T15:43:59.509Z,6.30
2023-05-02T15:46:27.109Z,7.10
2023-05-02T15:48:54.528Z,6.67
2023-05-02T15:51:21.922Z,6.60
2023-05-02T15:53:51.426Z,6.60
2023-05-02T15:56:20.110Z,7.00
2023-05-02T15:58:47.941Z,6.83
2023-05-02T16:01:15.401Z,5.70
2023-05-02T16:03:42.910Z,5.70
2023-05-02T16:06:10.473Z,6.70
2023-05-02T16:08:37.853Z,6.40
2023-05-02T16:11:05.471Z,6.07
2023-05-02T16:13:33.200Z,6.20
2023-05-02T16:16:00.787Z,6.53
2023-05-02T16:18:28.930Z,7.10
2023-05-02T16:20:59.302Z,6.00
2023-05-02T16:23:26.938Z,5.87
2023-05-02T16:25:58.015Z,6.97
2023-05-02T16:28:25.370Z,6.00
2023-05-02T16:30:52.805Z,6.17
2023-05-02T16:33:21.752Z,6.00
2023-05-02T16:35:49.554Z,6.20
2023-05-02T16:38:17.426Z,6.10
2023-05-02T16:40:44.820Z,5.90
2023-05-02T16:43:12.236Z,6.27
2023-05-02T16:45:39.560Z,5.40
2023-05-02T16:48:07.324Z,6.00
2023-05-02T16:50:35.637Z,5.80
2023-05-02T16:53:03.002Z,6.20
2023-05-02T16:55:30.306Z,6.10
2023-05-02T16:57:57.669Z,5.97
2023-05-02T17:00:25.121Z,5.80
2023-05-02T17:02:54.246Z,6.53
2023-05-02T17:05:22.526Z,5.90
2023-05-02T17:07:49.887Z,5.40
2023-05-02T17:10:17.256Z,6.00
2023-05-02T17:12:45.719Z,5.80
2023-05-02T17:15:14.712Z,5.60
2023-05-02T17:17:42.411Z,6.47
2023-05-02T17:20:11.268Z,6.63
2023-05-02T17:22:39.108Z,6.60
2023-05-02T17:25:06.640Z,6.20
2023-05-02T17:27:34.108Z,6.60
2023-05-02T17:30:01.740Z,6.43
2023-05-02T17:32:29.452Z,6.10
2023-05-02T17:34:58.691Z,6.30
2023-05-02T17:37:26.065Z,6.30
2023-05-02T17:39:53.393Z,6.33
2023-05-02T17:42:20.765Z,6.87
2023-05-02T17:44:48.367Z,6.17
2023-05-02T17:47:17.381Z,6.43
2023-05-02T17:49:45.731Z,7.23
2023-05-02T17:52:13.176Z,5.80
2023-05-02T17:54:40.543Z,5.93
2023-05-02T17:57:08.098Z,5.50
2023-05-02T17:59:37.027Z,5.53
2023-05-02T18:02:04.399Z,5.33
2023-05-02T18:04:31.704Z,5.03
2023-05-02T18:06:59.179Z,5.27
2023-05-02T18:09:26.729Z,5.30
2023-05-02T18:11:55.164Z,4.77
2023-05-02T18:14:22.537Z,4.57
2023-05-02T18:16:49.918Z,4.83
2023-05-02T18:19:17.281Z,4.63
2023-05-02T18:21:45.041Z,4.17
2023-05-02T18:24:12.484Z,5.00
2023-05-02T18:26:39.845Z,4.97
2023-05-02T18:29:08.676Z,4.43
2023-05-02T18:31:37.194Z,4.40
2023-05-02T18:34:04.628Z,4.30
2023-05-02T18:36:31.996Z,6.07
2023-05-02T18:39:00.149Z,5.10
2023-05-02T18:41:27.602Z,5.83
2023-05-02T18:43:54.949Z,4.73
2023-05-02T18:46:22.371Z,5.60
2023-05-02T18:48:49.716Z,5.03
2023-05-02T18:51:17.082Z,5.60
2023-05-02T18:53:44.510Z,5.83
2023-05-02T18:56:14.697Z,5.17
2023-05-02T18:58:42.851Z,4.57
2023-05-02T19:01:15.242Z,5.47
2023-05-02T19:03:43.609Z,5.37
2023-05-02T19:06:11.399Z,4.80
2023-05-02T19:08:40.005Z,5.27
2023-05-02T19:11:07.475Z,5.40
2023-05-02T19:13:34.847Z,4.87
2023-05-02T19:16:02.321Z,4.80
2023-05-02T19:18:29.690Z,5.10
2023-05-02T19:20:57.073Z,6.40
2023-05-02T19:23:25.464Z,5.30
2023-05-02T19:25:52.832Z,5.53
2023-05-02T19:28:20.193Z,5.00
2023-05-02T19:30:47.622Z,5.30
2023-05-02T19:33:14.924Z,5.43
2023-05-02T19:35:42.337Z,5.30
2023-05-02T19:38:09.690Z,5.70
2023-05-02T19:40:36.990Z,6.37
2023-05-02T19:43:04.522Z,6.80
2023-05-02T19:45:31.831Z,5.50
2023-05-02T19:47:59.269Z,5.97
2023-05-02T19:50:26.685Z,5.60
2023-05-02T19:52:53.970Z,6.30
2023-05-02T19:55:21.369Z,6.10
2023-05-02T19:57:48.808Z,5.90
2023-05-02T20:00:16.646Z,6.27
2023-05-02T20:02:44.387Z,6.30
2023-05-02T20:05:11.833Z,6.43
2023-05-02T20:07:39.273Z,5.90
2023-05-02T20:10:07.145Z,6.17
2023-05-02T20:12:34.506Z,6.00
2023-05-02T20:15:02.093Z,5.90
2023-05-02T20:17:29.534Z,6.90
2023-05-02T20:19:57.342Z,6.67
2023-05-02T20:22:24.713Z,5.50
2023-05-02T20:24:52.118Z,6.17
2023-05-02T20:27:19.469Z,6.03
2023-05-02T20:29:47.099Z,6.23
2023-05-02T20:32:14.934Z,6.10
2023-05-02T20:34:42.258Z,5.90
2023-05-02T20:37:13.124Z,6.80
2023-05-02T20:39:40.518Z,6.00
2023-05-02T20:42:08.458Z,5.90
2023-05-02T20:44:36.487Z,6.33
2023-05-02T20:47:04.050Z,5.67
2023-05-02T20:49:32.967Z,6.30
2023-05-02T20:52:01.811Z,5.77
2023-05-02T20:54:29.179Z,6.23
2023-05-02T20:56:56.485Z,6.17
2023-05-02T20:59:25.232Z,6.40
2023-05-02T21:01:52.594Z,6.20
2023-05-02T21:04:19.984Z,6.60
2023-05-02T21:06:47.744Z,6.47
2023-05-02T21:09:16.004Z,6.07
2023-05-02T21:11:43.456Z,6.13
2023-05-02T21:14:11.625Z,6.03
2023-05-02T21:16:39.093Z,6.30
2023-05-02T21:19:06.430Z,6.97
2023-05-02T21:21:33.770Z,6.50
2023-05-02T21:24:01.665Z,6.47
2023-05-02T21:26:29.223Z,6.00
2023-05-02T21:28:56.615Z,6.03
2023-05-02T21:31:24.027Z,6.73
2023-05-02T21:33:51.346Z,6.37
2023-05-02T21:36:18.718Z,6.60
2023-05-02T21:38:46.077Z,6.07
2023-05-02T21:41:13.404Z,6.23
2023-05-02T21:43:41.124Z,6.70
2023-05-02T21:46:09.969Z,7.20
2023-05-02T21:48:37.338Z,6.97
2023-05-02T21:51:11.447Z,6.80
2023-05-02T21:53:38.798Z,6.17
2023-05-02T21:56:06.943Z,6.40
2023-05-02T21:58:34.382Z,7.03
2023-05-02T22:01:01.714Z,6.87
2023-05-02T22:03:29.952Z,6.50
2023-05-02T22:05:57.849Z,6.23
2023-05-02T22:08:25.297Z,5.90
2023-05-02T22:10:52.731Z,6.77
2023-05-02T22:13:20.062Z,6.37
2023-05-02T22:15:47.589Z,7.00
2023-05-02T22:18:16.506Z,6.97
2023-05-02T22:20:44.346Z,6.00
2023-05-02T22:23:12.176Z,6.90
2023-05-02T22:25:43.173Z,6.93
2023-05-02T22:28:13.936Z,7.30
2023-05-02T22:30:44.742Z,7.00
2023-05-02T22:33:13.765Z,6.47
2023-05-02T22:35:41.216Z,6.10
2023-05-02T22:38:11.291Z,7.10
2023-05-02T22:40:38.652Z,6.40
2023-05-02T22:43:05.961Z,7.33
2023-05-02T22:45:34.135Z,7.70
2023-05-02T22:48:01.542Z,7.40
2023-05-02T22:50:29.969Z,7.90
2023-05-02T22:52:58.954Z,7.87
2023-05-02T22:55:26.360Z,7.20
2023-05-02T22:57:53.744Z,8.10
2023-05-02T23:00:22.404Z,8.03
2023-05-02T23:02:49.934Z,8.07
2023-05-02T23:05:17.412Z,7.47
2023-05-02T23:07:44.838Z,8.03
2023-05-02T23:10:12.175Z,7.73
2023-05-02T23:12:39.596Z,7.70
2023-05-02T23:15:07.348Z,7.70
2023-05-02T23:17:36.997Z,8.60
2023-05-02T23:20:05.109Z,8.10
2023-05-02T23:22:34.081Z,8.13
2023-05-02T23:25:01.432Z,8.70
2023-05-02T23:27:28.789Z,8.63
2023-05-02T23:29:56.175Z,8.43
2023-05-02T23:32:23.885Z,8.57
2023-05-02T23:34:51.293Z,8.43
2023-05-02T23:37:18.654Z,7.70
2023-05-02T23:39:45.977Z,8.40
2023-05-02T23:42:13.342Z,7.93
2023-05-02T23:44:40.714Z,8.80
2023-05-02T23:47:08.211Z,9.27
2023-05-02T23:49:36.941Z,9.13
2023-05-02T23:52:05.479Z,8.20
2023-05-02T23:54:34.658Z,9.07
2023-05-02T23:57:03.019Z,8.00
2023-05-02T23:59:30.386Z,9.10
